createdAt,value
2019-05-02T00:00:54.067Z,15.88
2019-05-02T00:03:26.981Z,15.87
2019-05-02T00:05:57.969Z,15.81
2019-05-02T00:08:32.923Z,15.81
2019-05-02T00:11:02.100Z,15.81
2019-05-02T00:13:33.910Z,15.82
2019-05-02T00:16:09.194Z,15.82
2019-05-02T00:18:39.072Z,15.80
2019-05-02T00:21:10.398Z,15.80
2019-05-02T00:23:42.450Z,15.81
2019-05-02T00:26:13.676Z,15.82
2019-05-02T00:28:48.034Z,15.83
2019-05-02T00:31:18.967Z,15.84
2019-05-02T00:33:50.033Z,15.84
2019-05-02T00:36:21.007Z,15.82
2019-05-02T00:38:52.035Z,15.81
2019-05-02T00:41:23.006Z,15.80
2019-05-02T00:43:54.004Z,15.78
2019-05-02T00:46:24.980Z,15.78
2019-05-02T00:48:59.827Z,15.75
2019-05-02T00:51:30.283Z,15.75
2019-05-02T00:54:01.285Z,15.74
2019-05-02T00:56:32.256Z,15.74
2019-05-02T00:59:07.364Z,15.75
2019-05-02T01:01:38.454Z,15.73
2019-05-02T01:04:11.176Z,15.70
2019-05-02T01:06:44.636Z,15.67
2019-05-02T01:09:14.884Z,15.66
2019-05-02T01:11:45.875Z,15.65
2019-05-02T01:14:16.850Z,15.63
2019-05-02T01:16:49.467Z,15.62
2019-05-02T01:19:20.504Z,15.61
2019-05-02T01:21:51.481Z,15.60
2019-05-02T01:24:22.629Z,15.60
2019-05-02T01:26:59.912Z,15.58
2019-05-02T01:29:32.307Z,15.56
2019-05-02T01:32:10.903Z,15.56
2019-05-02T01:34:48.921Z,15.51
2019-05-02T01:37:23.517Z,15.46
2019-05-02T01:39:54.497Z,15.43
2019-05-02T01:42:25.479Z,15.38
2019-05-02T01:44:56.452Z,15.35
2019-05-02T01:47:29.140Z,15.31
2019-05-02T01:50:00.376Z,15.30
2019-05-02T01:52:31.655Z,15.28
2019-05-02T01:55:02.627Z,15.25
2019-05-02T01:57:33.896Z,15.24
2019-05-02T02:00:11.189Z,15.26
2019-05-02T02:02:41.831Z,15.24
2019-05-02T02:05:12.802Z,15.22
2019-05-02T02:07:43.782Z,15.19
2019-05-02T02:10:19.352Z,15.16
2019-05-02T02:13:02.880Z,15.14
2019-05-02T02:15:25.184Z,15.10
2019-05-02T02:17:53.968Z,15.07
2019-05-02T02:20:26.586Z,15.07
2019-05-02T02:23:10.221Z,15.05
2019-05-02T02:25:43.646Z,15.07
2019-05-02T02:28:14.639Z,15.05
2019-05-02T02:30:45.896Z,15.02
2019-05-02T02:33:16.870Z,15.03
2019-05-02T02:35:50.409Z,15.02
2019-05-02T02:38:20.523Z,15.00
2019-05-02T02:40:52.236Z,15.00
2019-05-02T02:43:33.869Z,14.99
2019-05-02T02:45:59.636Z,15.00
2019-05-02T02:48:33.866Z,15.00
2019-05-02T02:51:03.732Z,14.98
2019-05-02T02:53:34.735Z,14.98
2019-05-02T02:56:10.661Z,14.98
2019-05-02T02:58:46.022Z,14.95
2019-05-02T03:01:14.343Z,14.94
2019-05-02T03:03:45.311Z,14.93
2019-05-02T03:06:16.290Z,14.95
2019-05-02T03:08:49.167Z,14.95
2019-05-02T03:11:23.538Z,14.95
2019-05-02T03:14:05.543Z,14.94
2019-05-02T03:16:33.429Z,14.93
2019-05-02T03:19:04.416Z,14.91
2019-05-02T03:21:35.461Z,14.89
2019-05-02T03:24:06.456Z,14.91
2019-05-02T03:26:37.431Z,14.90
2019-05-02T03:29:08.416Z,14.90
2019-05-02T03:31:39.406Z,14.91
2019-05-02T03:34:10.386Z,14.90
2019-05-02T03:36:41.362Z,14.89
2019-05-02T03:39:14.743Z,14.89
2019-05-02T03:41:45.116Z,14.88
2019-05-02T03:44:24.681Z,14.87
2019-05-02T03:46:54.241Z,14.85
2019-05-02T03:49:21.608Z,14.84
2019-05-02T03:51:56.075Z,14.84
2019-05-02T03:54:25.305Z,14.86
2019-05-02T03:56:56.287Z,14.87
2019-05-02T03:59:37.544Z,14.88
2019-05-02T04:02:00.007Z,14.88
2019-05-02T04:04:31.014Z,14.89
2019-05-02T04:07:03.416Z,14.88
2019-05-02T04:09:42.419Z,14.87
2019-05-02T04:12:19.074Z,14.87
2019-05-02T04:14:41.886Z,14.85
2019-05-02T04:17:13.238Z,14.84
2019-05-02T04:19:44.228Z,14.84
2019-05-02T04:22:15.874Z,14.84
2019-05-02T04:24:54.572Z,14.84
2019-05-02T04:27:19.576Z,14.84
2019-05-02T04:29:50.616Z,14.81
2019-05-02T04:32:21.623Z,14.83
2019-05-02T04:34:55.810Z,14.83
2019-05-02T04:37:25.907Z,14.83
2019-05-02T04:39:59.131Z,14.85
2019-05-02T04:42:29.621Z,14.86
2019-05-02T04:45:21.256Z,14.85
2019-05-02T04:47:34.160Z,14.86
2019-05-02T04:50:17.528Z,14.85
2019-05-02T04:52:48.228Z,14.84
2019-05-02T04:55:19.735Z,14.84
2019-05-02T04:57:48.017Z,14.84
2019-05-02T05:00:22.356Z,14.84
2019-05-02T05:02:53.707Z,14.84
2019-05-02T05:05:25.985Z,14.82
2019-05-02T05:07:58.640Z,14.83
2019-05-02T05:10:40.156Z,14.82
2019-05-02T05:13:02.408Z,14.81
2019-05-02T05:15:41.114Z,14.82
2019-05-02T05:18:10.417Z,14.82
2019-05-02T05:20:40.517Z,14.82
2019-05-02T05:23:15.738Z,14.82
2019-05-02T05:25:48.293Z,14.81
2019-05-02T05:28:20.247Z,14.79
2019-05-02T05:30:52.209Z,14.79
2019-05-02T05:33:23.362Z,14.79
2019-05-02T05:35:54.708Z,14.79
2019-05-02T05:38:28.560Z,14.78
2019-05-02T05:41:03.101Z,14.77
2019-05-02T05:43:31.194Z,14.76
2019-05-02T05:46:10.644Z,14.76
2019-05-02T05:48:37.133Z,14.73
2019-05-02T05:51:11.825Z,14.74
2019-05-02T05:53:40.267Z,14.75
2019-05-02T05:56:11.244Z,14.76
2019-05-02T05:58:50.496Z,14.75
2019-05-02T06:01:14.920Z,14.75
2019-05-02T06:03:47.373Z,14.75
2019-05-02T06:06:22.925Z,14.75
2019-05-02T06:08:54.191Z,14.77
2019-05-02T06:11:23.993Z,14.78
2019-05-02T06:13:54.971Z,14.80
2019-05-02T06:16:25.945Z,14.80
2019-05-02T06:18:57.078Z,14.82
2019-05-02T06:21:28.046Z,14.83
2019-05-02T06:23:59.032Z,14.83
2019-05-02T06:26:30.088Z,14.85
2019-05-02T06:29:01.196Z,14.86
2019-05-02T06:31:32.266Z,14.87
2019-05-02T06:34:07.043Z,14.89
2019-05-02T06:36:36.937Z,14.88
2019-05-02T06:39:08.756Z,14.88
2019-05-02T06:41:39.740Z,14.91
2019-05-02T06:44:10.909Z,14.91
2019-05-02T06:46:41.973Z,14.91
2019-05-02T06:49:12.943Z,14.92
2019-05-02T06:51:43.947Z,14.90
2019-05-02T06:54:18.070Z,14.91
2019-05-02T06:56:48.250Z,14.91
2019-05-02T06:59:20.334Z,14.94
2019-05-02T07:01:52.372Z,14.96
2019-05-02T07:04:25.068Z,14.97
2019-05-02T07:06:59.299Z,14.99
2019-05-02T07:09:39.862Z,15.01
2019-05-02T07:12:02.155Z,15.02
2019-05-02T07:14:34.113Z,15.04
2019-05-02T07:17:09.451Z,15.06
2019-05-02T07:19:47.541Z,15.07
2019-05-02T07:22:18.512Z,15.06
2019-05-02T07:24:49.569Z,15.07
2019-05-02T07:27:20.551Z,15.07
2019-05-02T07:29:52.054Z,15.07
2019-05-02T07:32:25.344Z,15.08
2019-05-02T07:34:57.004Z,15.08
2019-05-02T07:37:27.989Z,15.05
2019-05-02T07:39:58.975Z,15.04
2019-05-02T07:42:29.946Z,15.05
2019-05-02T07:45:04.456Z,15.06
2019-05-02T07:47:40.308Z,15.08
2019-05-02T07:50:10.321Z,15.08
2019-05-02T07:52:41.415Z,15.09
2019-05-02T07:55:12.579Z,15.09
2019-05-02T07:57:43.586Z,15.11
2019-05-02T08:00:15.005Z,15.11
2019-05-02T08:02:45.997Z,15.13
2019-05-02T08:05:21.485Z,15.13
2019-05-02T08:07:53.478Z,15.13
2019-05-02T08:10:24.110Z,15.10
2019-05-02T08:12:55.048Z,15.10
2019-05-02T08:15:26.021Z,15.10
2019-05-02T08:17:57.017Z,15.11
2019-05-02T08:20:28.022Z,15.11
2019-05-02T08:22:59.029Z,15.13
2019-05-02T08:25:30.009Z,15.16
2019-05-02T08:28:04.697Z,15.17
2019-05-02T08:30:40.507Z,15.17
2019-05-02T08:33:09.644Z,15.19
2019-05-02T08:35:40.619Z,15.21
2019-05-02T08:38:12.493Z,15.22
2019-05-02T08:40:47.743Z,15.27
2019-05-02T08:43:17.317Z,15.29
2019-05-02T08:45:48.374Z,15.31
2019-05-02T08:48:19.352Z,15.34
2019-05-02T08:50:50.360Z,15.36
2019-05-02T08:53:22.270Z,15.38
2019-05-02T08:55:53.779Z,15.41
2019-05-02T08:58:24.796Z,15.43
2019-05-02T09:00:55.769Z,15.45
2019-05-02T09:03:26.742Z,15.45
2019-05-02T09:06:05.633Z,15.48
2019-05-02T09:08:30.398Z,15.49
2019-05-02T09:11:01.486Z,15.49
2019-05-02T09:13:32.997Z,15.51
2019-05-02T09:16:05.944Z,15.52
2019-05-02T09:18:41.053Z,15.54
2019-05-02T09:21:09.528Z,15.55
2019-05-02T09:23:42.006Z,15.55
2019-05-02T09:26:13.680Z,15.53
2019-05-02T09:28:44.917Z,15.55
2019-05-02T09:31:15.898Z,15.56
2019-05-02T09:33:47.058Z,15.60
2019-05-02T09:36:18.139Z,15.62
2019-05-02T09:38:56.009Z,15.63
2019-05-02T09:41:22.228Z,15.64
2019-05-02T09:43:53.824Z,15.65
2019-05-02T09:46:24.815Z,15.66
2019-05-02T09:48:56.999Z,15.69
2019-05-02T09:51:28.931Z,15.70
2019-05-02T09:54:02.708Z,15.73
2019-05-02T09:56:32.643Z,15.74
2019-05-02T09:59:23.256Z,15.74
2019-05-02T10:01:38.077Z,15.75
2019-05-02T10:04:09.057Z,15.80
2019-05-02T10:06:40.037Z,15.83
2019-05-02T10:09:12.091Z,15.86
2019-05-02T10:11:43.230Z,15.88
2019-05-02T10:14:14.276Z,15.89
2019-05-02T10:16:45.262Z,15.92
2019-05-02T10:19:16.245Z,15.93
2019-05-02T10:21:52.429Z,15.96
2019-05-02T10:24:22.220Z,16.00
2019-05-02T10:26:57.085Z,16.04
2019-05-02T10:29:28.317Z,16.02
2019-05-02T10:31:58.843Z,16.06
2019-05-02T10:34:29.839Z,16.11
2019-05-02T10:37:02.832Z,16.18
2019-05-02T10:39:37.778Z,16.24
2019-05-02T10:42:06.649Z,16.27
2019-05-02T10:44:37.630Z,16.30
2019-05-02T10:47:08.608Z,16.31
2019-05-02T10:49:42.646Z,16.34
2019-05-02T10:52:13.686Z,16.34
2019-05-02T10:54:44.660Z,16.35
2019-05-02T10:57:15.654Z,16.38
2019-05-02T10:59:46.687Z,16.42
2019-05-02T11:02:23.420Z,16.45
2019-05-02T11:05:07.753Z,16.47
2019-05-02T11:07:38.753Z,16.49
2019-05-02T11:10:09.992Z,16.51
2019-05-02T11:12:46.850Z,16.55
2019-05-02T11:15:15.390Z,16.61
2019-05-02T11:17:47.656Z,16.66
2019-05-02T11:20:18.622Z,16.72
2019-05-02T11:22:52.066Z,16.75
2019-05-02T11:25:22.586Z,16.78
2019-05-02T11:27:57.368Z,16.82
2019-05-02T11:30:26.758Z,16.87
2019-05-02T11:32:57.735Z,16.93
2019-05-02T11:35:28.749Z,16.98
2019-05-02T11:37:59.720Z,17.01
2019-05-02T11:40:32.127Z,17.05
2019-05-02T11:43:06.780Z,17.09
2019-05-02T11:45:36.044Z,17.13
2019-05-02T11:48:09.355Z,17.17
2019-05-02T11:50:39.719Z,17.24
2019-05-02T11:53:23.206Z,17.28
2019-05-02T11:55:43.872Z,17.37
2019-05-02T11:58:14.934Z,17.52
2019-05-02T12:00:49.612Z,17.65
2019-05-02T12:03:28.156Z,17.77
2019-05-02T12:05:56.881Z,17.88
2019-05-02T12:08:27.858Z,18.01
2019-05-02T12:11:01.274Z,18.13
2019-05-02T12:13:32.307Z,18.28
2019-05-02T12:16:04.958Z,18.43
2019-05-02T12:18:36.410Z,18.57
2019-05-02T12:21:07.386Z,18.66
2019-05-02T12:23:38.434Z,18.78
2019-05-02T12:26:09.427Z,18.86
2019-05-02T12:28:42.772Z,18.93
2019-05-02T12:31:22.142Z,19.03
2019-05-02T12:33:56.144Z,19.11
2019-05-02T12:36:27.111Z,19.17
2019-05-02T12:38:58.100Z,19.23
2019-05-02T12:41:29.077Z,19.26
2019-05-02T12:44:02.076Z,19.29
2019-05-02T12:46:32.723Z,19.28
2019-05-02T12:49:03.743Z,19.26
2019-05-02T12:51:34.725Z,19.24
2019-05-02T12:54:06.061Z,19.23
2019-05-02T12:56:37.044Z,19.21
2019-05-02T12:59:08.045Z,19.19
2019-05-02T13:01:39.112Z,19.16
2019-05-02T13:04:15.927Z,19.12
2019-05-02T13:06:46.948Z,19.07
2019-05-02T13:09:17.954Z,19.00
2019-05-02T13:12:05.402Z,18.94
2019-05-02T13:14:36.645Z,18.88
2019-05-02T13:17:07.623Z,18.76
2019-05-02T13:19:41.528Z,18.70
2019-05-02T13:22:29.060Z,18.68
2019-05-02T13:25:02.369Z,18.62
2019-05-02T13:27:43.295Z,18.53
2019-05-02T13:30:12.285Z,18.47
2019-05-02T13:32:48.148Z,18.45
2019-05-02T13:35:19.011Z,18.40
2019-05-02T13:37:51.778Z,18.34
2019-05-02T13:40:24.488Z,18.29
2019-05-02T13:42:55.462Z,18.25
2019-05-02T13:45:43.144Z,18.22
2019-05-02T13:48:14.258Z,18.21
2019-05-02T13:50:45.261Z,18.15
2019-05-02T13:53:16.239Z,18.13
2019-05-02T13:55:54.611Z,18.11
2019-05-02T13:58:28.923Z,18.10
2019-05-02T14:00:58.378Z,18.09
2019-05-02T14:03:29.342Z,18.05
2019-05-02T14:06:00.341Z,18.04
2019-05-02T14:08:36.796Z,18.01
2019-05-02T14:11:05.430Z,17.99
2019-05-02T14:13:36.877Z,17.97
2019-05-02T14:16:07.861Z,17.96
2019-05-02T14:18:38.839Z,17.92
2019-05-02T14:21:09.904Z,17.91
2019-05-02T14:23:42.030Z,17.87
2019-05-02T14:26:13.061Z,17.84
2019-05-02T14:28:44.870Z,17.81
2019-05-02T14:31:15.849Z,17.78
2019-05-02T14:33:48.503Z,17.76
2019-05-02T14:36:19.475Z,17.74
2019-05-02T14:38:52.509Z,17.71
2019-05-02T14:41:25.259Z,17.70
2019-05-02T14:43:56.234Z,17.69
2019-05-02T14:46:35.371Z,17.67
2019-05-02T14:49:00.079Z,17.68
2019-05-02T14:51:33.090Z,17.67
2019-05-02T14:54:08.279Z,17.68
2019-05-02T14:56:43.498Z,17.64
2019-05-02T14:59:15.281Z,17.60
2019-05-02T15:01:47.018Z,17.57
2019-05-02T15:04:18.143Z,17.54
2019-05-02T15:06:52.306Z,17.52
2019-05-02T15:09:26.891Z,17.50
2019-05-02T15:11:58.329Z,17.51
2019-05-02T15:14:32.643Z,17.50
2019-05-02T15:17:04.501Z,17.48
2019-05-02T15:19:35.487Z,17.48
2019-05-02T15:22:06.535Z,17.47
2019-05-02T15:24:38.091Z,17.48
2019-05-02T15:27:13.306Z,17.49
2019-05-02T15:29:42.180Z,17.50
2019-05-02T15:32:27.784Z,17.49
2019-05-02T15:35:08.678Z,17.48
2019-05-02T15:37:41.637Z,17.39
2019-05-02T15:42:47.785Z,17.37
2019-05-02T15:45:20.359Z,17.37
2019-05-02T15:47:52.610Z,17.38
2019-05-02T15:50:25.583Z,17.39
2019-05-02T15:53:09.778Z,17.41
2019-05-02T15:55:39.524Z,17.41
2019-05-02T15:58:22.581Z,17.43
2019-05-02T16:00:56.445Z,17.45
2019-05-02T16:03:27.759Z,17.44
2019-05-02T16:05:58.738Z,17.45
2019-05-02T16:08:32.572Z,17.46
2019-05-02T16:11:03.644Z,17.48
2019-05-02T16:13:34.627Z,17.48
2019-05-02T16:16:05.649Z,17.50
2019-05-02T16:18:40.935Z,17.52
2019-05-02T16:21:26.394Z,17.54
2019-05-02T16:24:12.075Z,17.55
2019-05-02T16:26:44.916Z,17.53
2019-05-02T16:29:19.499Z,17.52
2019-05-02T16:31:55.035Z,17.50
2019-05-02T16:34:27.375Z,17.50
2019-05-02T16:37:07.102Z,17.48
2019-05-02T16:39:37.486Z,17.48
2019-05-02T16:42:08.730Z,17.47
2019-05-02T16:44:39.732Z,17.49
2019-05-02T16:47:10.741Z,17.50
2019-05-02T16:49:41.979Z,17.50
2019-05-02T16:52:15.999Z,17.51
2019-05-02T16:54:46.408Z,17.51
2019-05-02T16:57:22.174Z,17.51
2019-05-02T16:59:53.895Z,17.52
2019-05-02T17:02:22.783Z,17.54
2019-05-02T17:04:54.914Z,17.55
2019-05-02T17:07:27.568Z,17.54
2019-05-02T17:10:03.263Z,17.54
2019-05-02T17:12:35.533Z,17.54
2019-05-02T17:15:31.055Z,17.52
2019-05-02T17:18:04.896Z,17.53
2019-05-02T17:20:35.034Z,17.48
2019-05-02T17:23:07.383Z,17.49
2019-05-02T17:25:38.873Z,17.51
2019-05-02T17:28:11.180Z,17.54
2019-05-02T17:30:43.071Z,17.57
2019-05-02T17:33:16.337Z,17.61
2019-05-02T17:35:51.553Z,17.64
2019-05-02T17:38:27.360Z,17.66
2019-05-02T17:40:54.343Z,17.69
2019-05-02T17:43:24.977Z,17.71
2019-05-02T17:45:56.381Z,17.70
2019-05-02T17:48:29.339Z,17.70
2019-05-02T17:51:04.579Z,17.69
2019-05-02T17:53:41.065Z,17.67
2019-05-02T17:56:12.991Z,17.66
2019-05-02T17:58:47.302Z,17.63
2019-05-02T18:01:18.414Z,17.61
2019-05-02T18:03:49.374Z,17.60
2019-05-02T18:06:30.804Z,17.56
2019-05-02T18:08:55.252Z,17.55
2019-05-02T18:11:29.574Z,17.54
2019-05-02T18:13:58.408Z,17.52
2019-05-02T18:16:29.409Z,17.51
2019-05-02T18:19:01.827Z,17.50
2019-05-02T18:21:32.994Z,17.49
2019-05-02T18:24:06.078Z,17.48
2019-05-02T18:26:37.901Z,17.48
2019-05-02T18:29:08.880Z,17.47
2019-05-02T18:31:47.143Z,17.48
2019-05-02T18:34:20.396Z,17.46
2019-05-02T18:36:46.298Z,17.43
2019-05-02T18:39:17.269Z,17.39
2019-05-02T18:41:48.412Z,17.34
2019-05-02T18:44:19.390Z,17.26
2019-05-02T18:46:51.919Z,17.19
2019-05-02T18:49:23.463Z,17.13
2019-05-02T18:51:57.338Z,17.07
2019-05-02T18:54:27.536Z,16.99
2019-05-02T18:56:58.494Z,16.93
2019-05-02T18:59:29.460Z,16.88
2019-05-02T19:02:02.156Z,16.86
2019-05-02T19:04:38.239Z,16.83
2019-05-02T19:07:07.591Z,16.79
2019-05-02T19:09:48.394Z,16.76
2019-05-02T19:12:19.422Z,16.74
2019-05-02T19:14:44.201Z,16.72
2019-05-02T19:17:15.176Z,16.68
2019-05-02T19:19:46.168Z,16.65
2019-05-02T19:22:17.207Z,16.63
2019-05-02T19:24:48.544Z,16.60
2019-05-02T19:27:25.223Z,16.55
2019-05-02T19:29:54.682Z,16.53
2019-05-02T19:32:28.351Z,16.45
2019-05-02T19:35:03.238Z,16.45
2019-05-02T19:37:31.626Z,16.45
2019-05-02T19:40:02.900Z,16.45
2019-05-02T19:42:33.853Z,16.45
2019-05-02T19:45:11.399Z,16.44
2019-05-02T19:47:38.921Z,16.44
2019-05-02T19:50:40.321Z,16.43
2019-05-02T19:53:14.822Z,16.44
2019-05-02T19:55:38.961Z,16.43
2019-05-02T19:58:09.927Z,16.42
2019-05-02T20:00:42.351Z,16.42
2019-05-02T20:03:21.557Z,16.43
2019-05-02T20:05:48.495Z,16.42
2019-05-02T20:08:22.837Z,16.40
2019-05-02T20:10:56.735Z,16.41
2019-05-02T20:13:28.115Z,16.39
2019-05-02T20:16:11.867Z,16.36
2019-05-02T20:18:47.135Z,16.32
2019-05-02T20:21:26.866Z,16.23
2019-05-02T20:23:52.819Z,16.17
2019-05-02T20:26:23.859Z,16.10
2019-05-02T20:28:54.822Z,16.03
2019-05-02T20:31:25.809Z,15.97
2019-05-02T20:33:56.777Z,15.91
2019-05-02T20:36:27.778Z,15.87
2019-05-02T20:38:58.765Z,15.82
2019-05-02T20:41:29.900Z,15.80
2019-05-02T20:44:02.631Z,15.79
2019-05-02T20:46:33.725Z,15.77
2019-05-02T20:49:04.714Z,15.74
2019-05-02T20:51:35.685Z,15.71
2019-05-02T20:54:06.688Z,15.65
2019-05-02T20:56:37.667Z,15.60
2019-05-02T20:59:08.643Z,15.58
2019-05-02T21:01:39.612Z,15.55
2019-05-02T21:04:12.077Z,15.54
2019-05-02T21:06:44.782Z,15.54
2019-05-02T21:09:17.380Z,15.52
2019-05-02T21:11:50.015Z,15.48
2019-05-02T21:14:21.680Z,15.43
2019-05-02T21:16:52.637Z,15.40
2019-05-02T21:19:23.627Z,15.37
2019-05-02T21:21:55.134Z,15.33
2019-05-02T21:24:26.210Z,15.29
2019-05-02T21:26:57.243Z,15.26
2019-05-02T21:29:28.242Z,15.22
2019-05-02T21:31:59.204Z,15.21
2019-05-02T21:34:31.848Z,15.20
2019-05-02T21:37:02.856Z,15.20
2019-05-02T21:39:34.898Z,15.18
2019-05-02T21:42:05.871Z,15.16
2019-05-02T21:44:36.845Z,15.14
2019-05-02T21:47:07.819Z,15.13
2019-05-02T21:49:43.282Z,15.10
2019-05-02T21:52:15.979Z,15.09
2019-05-02T21:54:54.354Z,15.08
2019-05-02T21:57:25.324Z,15.05
2019-05-02T21:59:56.286Z,15.05
2019-05-02T22:02:27.324Z,15.03
2019-05-02T22:04:58.293Z,15.02
2019-05-02T22:07:29.260Z,15.00
2019-05-02T22:10:00.294Z,15.00
2019-05-02T22:12:31.778Z,14.99
2019-05-02T22:15:02.849Z,14.97
2019-05-02T22:17:33.798Z,14.94
2019-05-02T22:20:06.708Z,14.90
2019-05-02T22:22:37.681Z,14.90
2019-05-02T22:25:08.645Z,14.87
2019-05-02T22:27:39.628Z,14.84
2019-05-02T22:30:12.568Z,14.83
2019-05-02T22:32:43.534Z,14.85
2019-05-02T22:35:14.742Z,14.83
2019-05-02T22:37:47.381Z,14.81
2019-05-02T22:40:18.722Z,14.81
2019-05-02T22:42:49.707Z,14.78
2019-05-02T22:45:21.796Z,14.76
2019-05-02T22:47:52.850Z,14.78
2019-05-02T22:50:23.912Z,14.77
2019-05-02T22:52:54.902Z,14.77
2019-05-02T22:55:25.904Z,14.76
2019-05-02T22:57:56.854Z,14.77
2019-05-02T23:00:28.017Z,14.76
2019-05-02T23:02:58.986Z,14.76
2019-05-02T23:05:29.967Z,14.78
2019-05-02T23:08:02.292Z,14.75
2019-05-02T23:10:33.402Z,14.78
2019-05-02T23:13:04.403Z,14.78
2019-05-02T23:15:35.406Z,14.77
2019-05-02T23:18:06.438Z,14.76
2019-05-02T23:20:37.498Z,14.75
2019-05-02T23:23:08.451Z,14.73
2019-05-02T23:25:53.404Z,14.72
2019-05-02T23:28:32.008Z,14.71
2019-05-02T23:31:03.043Z,14.68
2019-05-02T23:33:52.896Z,14.64
2019-05-02T23:36:23.871Z,14.63
2019-05-02T23:38:54.866Z,14.59
2019-05-02T23:41:25.852Z,14.58
2019-05-02T23:43:56.843Z,14.58
2019-05-02T23:46:27.848Z,14.58
2019-05-02T23:48:58.837Z,14.57
2019-05-02T23:51:31.897Z,14.56
2019-05-02T23:54:02.676Z,14.57
2019-05-02T23:56:33.648Z,14.55
2019-05-02T23:59:04.657Z,14.54
